• Join FlightAware (Why Join?)
  • Login
  • US Flag 
10:41AM EDT


 

Airport Tracker/Info


-or-


 

Live Flight TrackerFlight Track Log ✈ N500CM ✈ 30-Apr-2013 ✈ KMQI - KPSM

Flight Track Log - Related Links

Times and Time Zones

All times are in EDT time to prevent confusion due to time zone crossing. See the N500CM flight status page for this flight to view local times or setup timezone preferences in your user account.

Time Position Orientation Groundspeed Altitude Reporting Facility
EDT Latitude Longitude Course Direction KTS MPH feet Rate Location/Type
09:13AM 36.1061 -75.9622 302° West  Level FlightAware Approximate
09:14AM 35.9828 -75.7358 302° West 165 190 3,100  Level Washington Center
09:15AM 35.9931 -75.7897 283° West 159 183 3,100  Level Washington Center
09:16AM 36.0075 -75.8436 288° West 164 189 3,100 -60 Level Washington Center
09:17AM 36.0325 -75.8925 302° West 173 199 3,000  Descending Washington Center
09:18AM 36.0658 -75.9286 319° Northwest 158 182 3,100  Climbing Washington Center
09:18AM 36.0908 -75.9594 315° West 163 188 3,100  Level Washington Center
09:19AM 36.0992 -75.9672 323° Northwest 158 182 3,100 480 Level Washington Center
09:19AM 36.1178 -75.9983 307° West 152 175 3,600 480 Climbing Washington Center
09:20AM 36.1261 -76.0061 323° Northwest 158 182 3,600 180 Level Washington Center
09:20AM 36.1469 -76.0344 312° West 146 168 3,800 360 Climbing Washington Center
09:21AM 36.1553 -76.0422 323° Northwest 158 182 4,000 480 Climbing Washington Center
09:21AM 36.1758 -76.0731 310° West 142 163 4,300 360 Climbing Washington Center
09:22AM 36.1822 -76.0758 341° North 147 169 4,400 480 Climbing Washington Center
09:22AM 36.2050 -76.1094 310° West 141 162 4,800 360 Climbing Washington Center
09:23AM 36.2092 -76.1094 360° North 147 169 4,800 300 Level Washington Center
09:23AM 36.2383 -76.1303 330° Northwest 150 173 5,100 300 Climbing Washington Center
09:24AM 36.2467 -76.1278 14° North 142 163 5,100 360 Level Washington Center
09:24AM 36.2781 -76.1281 360° North 142 163 5,500 360 Climbing Washington Center
09:25AM 36.2883 -76.1281 360° North 137 158 5,500 180 Level Washington Center
09:25AM 36.3197 -76.1283 360° North 151 174 5,700 240 Climbing Washington Center
09:26AM 36.3281 -76.1256 15° North 137 158 5,800 300 Climbing Washington Center
09:27AM 36.3656 -76.1283 357° North 146 168 6,100 420 Climbing Washington Center
09:28AM 36.3989 -76.1314 356° North 135 155 6,600 480 Climbing Washington Center
09:28AM 36.4364 -76.1342 357° North 138 159 7,100 180 Climbing Washington Center
09:30AM 36.4803 -76.1397 354° North 157 181 7,000 -60 Descending Washington Center
09:31AM 36.5261 -76.1450 355° North 160 184 7,000  Level Washington Center
09:32AM 36.5742 -76.1506 355° North 158 182 7,000  Level Washington Center
09:33AM 36.6136 -76.1561 354° North 158 182 7,000  Level Washington Center
09:34AM 36.6575 -76.1642 352° North 156 180 7,000  Level Washington Center
09:34AM 36.6972 -76.1697 354° North 156 180 7,000  Level Washington Center
09:36AM 36.7431 -76.1778 352° North 154 177 7,000  Level Washington Center
09:37AM 36.7825 -76.1831 354° North 154 177 7,000  Level Washington Center
09:38AM 36.8283 -76.1886 354° North 154 177 7,000  Level Washington Center
09:39AM 36.8742 -76.1969 352° North 156 180 7,000  Level Washington Center
09:40AM 36.9161 -76.1894 North 160 184 7,000  Level Washington Center
09:41AM 36.9578 -76.1742 16° North 160 184 7,000  Level Washington Center
09:42AM 36.9997 -76.1614 14° North 159 183 7,000  Level Washington Center
09:43AM 37.0436 -76.1461 16° North 159 183 7,000  Level Washington Center
09:44AM 37.0894 -76.1283 17° North 158 182 7,000  Level Washington Center
09:45AM 37.1311 -76.1181 11° North 160 184 7,000  Level Washington Center
09:46AM 37.1731 -76.1053 14° North 159 183 7,000  Level Washington Center
09:47AM 37.2211 -76.0900 14° North 161 185 7,000  Level Washington Center
09:48AM 37.2669 -76.0719 17° North 161 185 7,000  Level Washington Center
09:49AM 37.3067 -76.0592 14° North 158 182 7,000  Level Washington Center
09:50AM 37.3486 -76.0333 26° Northeast 160 184 7,000  Level Washington Center
09:51AM 37.3883 -76.0075 27° Northeast 158 182 7,000  Level Washington Center
09:51AM 37.4111 -75.9919 28° Northeast 158 182 7,000  Level Washington Center
09:52AM 37.4239 -75.9867 18° North 159 183 7,000  Level Washington Center
09:53AM 37.4656 -75.9633 24° Northeast 160 184 7,000  Level Washington Center
09:54AM 37.5072 -75.9453 19° North 159 183 7,000  Level Washington Center
09:55AM 37.5511 -75.9219 23° Northeast 161 185 7,000  Level Washington Center
09:56AM 37.5931 -75.9011 21° North 161 185 7,000  Level Washington Center
09:57AM 37.6347 -75.8778 24° Northeast 159 183 7,000  Level Washington Center
09:58AM 37.6786 -75.8567 21° North 161 185 7,000  Level Washington Center
09:59AM 37.7203 -75.8361 21° North 158 182 7,000  Level Washington Center
10:00AM 37.7581 -75.8178 21° North 159 183 7,000  Level Washington Center
10:01AM 37.7956 -75.7967 24° Northeast 160 184 7,000  Level Washington Center
10:02AM 37.8353 -75.7731 25° Northeast 158 182 7,000  Level Washington Center
10:03AM 37.8789 -75.7522 21° North 162 186 7,000  Level Washington Center
10:04AM 37.9228 -75.7314 21° North 159 183 7,000  Level Washington Center
10:05AM 37.9625 -75.7131 20° North 157 181 7,000  Level Washington Center
10:06AM 38.0042 -75.6892 24° Northeast 157 181 7,000  Level Washington Center
10:07AM 38.0439 -75.6656 25° Northeast 158 182 7,000  Level Washington Center
10:08AM 38.0875 -75.6419 23° Northeast 161 185 7,000  Level Washington Center
10:09AM 38.1314 -75.6233 18° North 161 185 7,000  Level Washington Center
10:10AM 38.1731 -75.6022 22° Northeast 163 188 7,000  Level Washington Center
10:11AM 38.2147 -75.5839 19° North 165 190 7,000  Level Washington Center
10:12AM 38.2586 -75.5628 21° North 163 188 7,000  Level Washington Center
10:13AM 38.3169 -75.5283 25° Northeast 183 211 7,000 120 Level Washington Center
10:14AM 38.3544 -75.5044 27° Northeast 176 203 7,300 240 Climbing Washington Center
10:15AM 38.3900 -75.4753 33° Northeast 157 181 7,600 240 Climbing Washington Center
10:16AM 38.4211 -75.4511 31° Northeast 136 157 7,800 240 Climbing Washington Center
10:17AM 38.4525 -75.4194 38° Northeast 136 157 8,100 240 Climbing Washington Center
10:18AM 38.4817 -75.3875 41° Northeast 136 157 8,400 240 Climbing Washington Center
10:19AM 38.5169 -75.3581 33° Northeast 136 157 8,600 180 Climbing Washington Center
10:20AM 38.5461 -75.3289 38° Northeast 136 157 8,800 180 Climbing Washington Center
10:21AM 38.5794 -75.2969 37° Northeast 136 157 9,000 120 Climbing Washington Center
10:22AM 38.6147 -75.2650 35° Northeast 136 157 9,100  Climbing Washington Center
10:23AM 38.6522 -75.2328 34° Northeast 146 168 9,100  Level Washington Center
10:24AM 38.6875 -75.2008 35° Northeast 152 175 9,100  Level Washington Center
10:25AM 38.7228 -75.1686 35° Northeast 152 175 9,100  Level Washington Center
10:26AM 38.7603 -75.1364 34° Northeast 152 175 9,100  Level Washington Center
10:27AM 38.7933 -75.1042 37° Northeast 152 175 9,100 -60 Level Washington Center
10:28AM 38.8308 -75.0694 36° Northeast 152 175 9,000 -60 Descending Washington Center
10:29AM 38.8661 -75.0397 33° Northeast 152 175 9,000  Level Washington Center
10:30AM 38.9033 -75.0022 38° Northeast 152 175 9,100 -300 Climbing Washington Center
10:31AM 38.9408 -74.9672 36° Northeast 152 175 8,500 -480 Descending Washington Center
10:32AM 38.9803 -74.9294 37° Northeast 157 181 8,200 -300 Descending Washington Center
10:33AM 39.0197 -74.8942 35° Northeast 167 192 8,000 -120 Descending Washington Center
10:34AM 39.0569 -74.8619 34° Northeast 167 192 8,000  Level Washington Center
10:35AM 39.1006 -74.8372 24° Northeast 167 192 8,000  Level Washington Center
10:36AM 39.1442 -74.8208 16° North 162 186 8,000  Level Washington Center
10:37AM 39.1858 -74.8044 17° North 157 181 8,000  Level Washington Center
10:38AM 39.2272 -74.7850 20° North 157 181 8,000  Level Washington Center
10:39AM 39.2708 -74.7658 19° North 157 181 8,000  Level Washington Center
10:40AM 39.3147 -74.7492 16° North 157 181 8,000  Level Washington Center
10:41AM 39.3561 -74.7300 20° North 157 181 8,000 -60 Level Washington Center
10:42AM 39.4019 -74.7161 13° North 157 181 7,900 -300 Descending Washington Center
10:43AM 39.4456 -74.6967 19° North 169 194 7,400 -360 Descending Washington Center
10:44AM 39.4911 -74.6744 21° North 169 194 7,200 -180 Descending Washington Center
10:45AM 39.5369 -74.6550 18° North 169 194 7,100 -120 Descending Washington Center
10:46AM 39.5806 -74.6383 16° North 164 189 7,000 -60 Descending Washington Center
10:47AM 39.6242 -74.6164 21° North 164 189 7,000  Level Washington Center
10:48AM 39.6678 -74.5942 21° North 164 189 7,000  Level Washington Center
10:49AM 39.7069 -74.5639 31° Northeast 164 189 7,000  Level Washington Center
10:51AM 39.7482 -74.5086 46° Northeast  Level FlightAware Approximate
10:55AM 39.9333 -74.3500 30° Northeast 158 182 7,200  Level New York TRACON
10:56AM 39.9833 -74.3167 27° Northeast 157 181 7,200  Level New York TRACON
10:57AM 40.0167 -74.2833 37° Northeast 155 178 7,200  Level New York TRACON
10:58AM 39.9879 -74.2611 35° Northeast  Level FlightAware Approximate
10:58AM 40.0500 -74.2667 21° North 155 178 7,200  Level New York TRACON
10:59AM 40.0227 -74.2273 37° Northeast  Level FlightAware Approximate
10:59AM 40.0833 -74.2333 37° Northeast 157 181 7,200  Level New York TRACON
11:00AM 40.0543 -74.1887 46° Northeast  Level FlightAware Approximate
11:00AM 40.1167 -74.2000 37° Northeast 156 180 7,200  Level New York TRACON
11:01AM 40.0850 -74.1487 30° Northeast  Level FlightAware Approximate
11:01AM 40.1667 -74.1667 27° Northeast 154 177 7,200  Level New York TRACON
11:02AM 40.2000 -74.1333 37° Northeast 154 177 7,200  Level New York TRACON
11:03AM 40.2333 -74.1000 37° Northeast 153 176 7,200 -60 Level New York TRACON
11:04AM 40.2667 -74.0667 37° Northeast 154 177 7,100 -60 Descending New York TRACON
11:05AM 40.3000 -74.0500 21° North 153 176 7,100  Level New York TRACON
11:06AM 40.3500 -74.0167 27° Northeast 154 177 7,100  Level New York TRACON
11:07AM 40.3833 -73.9833 37° Northeast 152 175 7,100  Level New York TRACON
11:08AM 40.4167 -73.9500 37° Northeast 153 176 7,100  Level New York TRACON
11:09AM 40.4500 -73.9167 37° Northeast 154 177 7,100  Level New York TRACON
11:10AM 40.4833 -73.9000 21° North 156 180 7,100  Level New York TRACON
11:11AM 40.5167 -73.8667 37° Northeast 156 180 7,100  Level New York TRACON
11:12AM 40.5500 -73.8333 37° Northeast 154 177 7,100  Level New York TRACON
11:13AM 40.5833 -73.8000 37° Northeast 151 174 7,100  Level New York TRACON
11:14AM 40.6167 -73.7667 37° Northeast 131 151 7,100  Level New York TRACON
11:15AM 40.6667 -73.7333 27° Northeast 132 152 7,100  Level New York TRACON
11:16AM 40.7000 -73.6833 49° Northeast 152 175 7,100  Level New York TRACON
11:17AM 40.7167 -73.6500 57° Northeast 152 175 7,200  Climbing New York TRACON
11:18AM 40.7333 -73.6000 66° East 154 177 7,200  Level New York TRACON
11:19AM 40.7667 -73.5500 49° Northeast 154 177 7,200  Level New York TRACON
11:20AM 40.7833 -73.5000 66° East 153 176 7,200  Level New York TRACON
11:21AM 40.8167 -73.4667 37° Northeast 155 178 7,200  Level New York TRACON
11:22AM 40.8333 -73.4167 66° East 157 181 7,200  Level New York TRACON
11:23AM 40.8500 -73.3667 66° East 156 180 7,200  Level New York TRACON
11:24AM 40.8833 -73.3167 49° Northeast 156 180 7,200  Level New York TRACON
11:25AM 40.9000 -73.2833 57° Northeast 154 177 7,200  Level New York TRACON
11:26AM 40.9333 -73.2333 49° Northeast 158 182 7,200  Level New York TRACON
11:27AM 40.9667 -73.2000 37° Northeast 156 180 7,200  Level New York TRACON
11:28AM 41.0000 -73.1667 37° Northeast 157 181 7,200  Level New York TRACON
11:29AM 41.0333 -73.1333 37° Northeast 155 178 7,200  Level New York TRACON
11:30AM 41.0667 -73.1000 37° Northeast 157 181 7,200  Level New York TRACON
11:31AM 41.1167 -73.0667 27° Northeast 156 180 7,200  Level New York TRACON
11:32AM 41.1500 -73.0333 37° Northeast 156 180 7,200  Level New York TRACON
11:33AM 41.1833 -73.0000 37° Northeast 158 182 7,200  Level New York TRACON
11:34AM 41.2167 -72.9667 37° Northeast 156 180 7,200 -60 Level New York TRACON
11:35AM 41.2383 -72.9425 40° Northeast 156 180 7,100 -60 Descending Boston Center
11:36AM 41.2719 -72.9069 38° Northeast 156 180 7,100  Level Boston Center
11:37AM 41.3075 -72.8683 39° Northeast 156 180 7,100  Level Boston Center
11:38AM 41.3431 -72.8328 37° Northeast 155 178 7,100  Level Boston Center
11:39AM 41.3786 -72.7969 37° Northeast 157 181 7,100  Level Boston Center
11:40AM 41.4142 -72.7667 33° Northeast 157 181 7,200  Climbing Boston Center
11:41AM 41.4497 -72.7308 37° Northeast 157 181 7,200  Level Boston Center
11:42AM 41.4831 -72.6950 39° Northeast 158 182 7,200  Level Boston Center
11:43AM 41.5289 -72.6675 24° Northeast 161 185 7,200 -60 Level Boston Center
11:44AM 41.5667 -72.6425 26° Northeast 158 182 7,100 -60 Descending Boston Center
11:45AM 41.6103 -72.6150 25° Northeast 159 183 7,100  Level Boston Center
11:46AM 41.6500 -72.5928 23° Northeast 158 182 7,200  Climbing Boston Center
11:47AM 41.6897 -72.5681 25° Northeast 159 183 7,200  Level Boston Center
11:48AM 41.7292 -72.5458 23° Northeast 156 180 7,200  Level Boston Center
11:49AM 41.7669 -72.5236 24° Northeast 157 181 7,200 -60 Level Boston Center
11:50AM 41.8169 -72.4958 22° Northeast 158 182 7,100 -60 Descending Boston Center
11:51AM 41.8544 -72.4736 24° Northeast 159 183 7,100  Level Boston Center
11:52AM 41.8939 -72.4486 25° Northeast 158 182 7,100  Level Boston Center
11:53AM 41.9439 -72.4178 25° Northeast 158 182 7,100  Level Boston Center
11:54AM 41.9772 -72.3983 23° Northeast 156 180 7,100  Level Boston Center
11:55AM 42.0231 -72.3731 22° Northeast 158 182 7,100  Level Boston Center
11:56AM 42.0606 -72.3478 27° Northeast 158 182 7,100  Level Boston Center
11:57AM 42.1022 -72.3225 24° Northeast 158 182 7,100  Level Boston Center
11:58AM 42.1397 -72.3000 24° Northeast 156 180 7,100  Level Boston Center
12:00PM 42.1814 -72.2747 24° Northeast 169 194 7,200  Climbing Boston Center
12:01PM 42.2253 -72.2494 23° Northeast 158 182 7,200  Level Boston Center
12:02PM 42.2628 -72.2269 24° Northeast 158 182 7,200  Level Boston Center
12:03PM 42.3064 -72.2014 23° Northeast 153 176 7,200  Level Boston Center
12:04PM 42.3417 -72.1761 28° Northeast 153 176 7,200  Level Boston Center
12:05PM 42.3856 -72.1478 25° Northeast 154 177 7,200  Level Boston Center
12:06PM 42.4228 -72.1308 19° North 154 177 7,200  Level Boston Center
12:07PM 42.4667 -72.1053 23° Northeast 149 171 7,200 -60 Level Boston Center
12:08PM 42.4872 -72.0600 58° Northeast 144 166 7,100  Descending Boston Center
12:09PM 42.5058 -72.0008 67° East 149 171 7,200  Climbing Boston Center
12:10PM 42.5264 -71.9583 57° Northeast 159 183 7,200  Level Boston Center
12:11PM 42.5597 -71.9072 48° Northeast 159 183 7,200  Level Boston Center
12:12PM 42.5844 -71.8678 50° Northeast 147 169 7,200 -60 Level Boston Center
12:13PM 42.6156 -71.8167 50° Northeast 156 180 7,100 -120 Descending Boston Center
12:14PM 42.6381 -71.7742 54° Northeast 156 180 7,000 -60 Descending Boston Center
12:15PM 42.6669 -71.7228 53° Northeast 161 185 7,000  Level Boston Center
12:16PM 42.6917 -71.6803 52° Northeast 156 180 7,000  Level Boston Center
12:17PM 42.7206 -71.6261 54° Northeast 156 180 7,100  Climbing Boston Center
12:18PM 42.7431 -71.5836 54° Northeast 151 174 7,100  Level Boston Center
12:19PM 42.7719 -71.5322 53° Northeast 151 174 7,100  Level Boston Center
12:20PM 42.7967 -71.4867 54° Northeast 151 174 7,100  Level Boston Center
12:21PM 42.8275 -71.4350 51° Northeast 151 174 7,100 -120 Level Boston Center
12:22PM 42.8500 -71.3950 52° Northeast 151 174 6,900 -420 Descending Boston Center
12:23PM 42.8786 -71.3464 51° Northeast 151 174 6,300 -540 Descending Boston Center
12:23PM 42.9000 -71.3000 58° Northeast 154 177 6,000 -540 Descending KA90
12:24PM 42.9167 -71.2667 56° Northeast 160 184 5,500 -540 Descending KA90
12:25PM 42.9333 -71.2000 71° East 163 188 5,000 -480 Descending KA90
12:26PM 42.9667 -71.1500 48° Northeast 154 177 4,500 -480 Descending KA90
12:27PM 42.9833 -71.1167 56° Northeast 155 178 4,000 -420 Descending KA90
12:28PM 43.0167 -71.0667 48° Northeast 147 169 3,700 -420 Descending KA90
12:29PM 43.0333 -71.0167 65° Northeast 151 174 3,200 -360 Descending KA90
12:30PM 43.0667 -70.9833 36° Northeast 157 181 3,000 -120 Descending KA90
12:31PM 43.1167 -71.0000 346° North 162 186 3,000  Level KA90
12:32PM 43.1500 -71.0167 340° North 166 191 3,000  Level KA90
12:33PM 43.2000 -71.0333 346° North 160 184 3,000  Level KA90
12:34PM 43.2333 -71.0000 36° Northeast 163 188 3,000  Level KA90
12:35PM 43.2333 -70.9333 90° East 157 181 3,100  Climbing KA90
12:36PM 43.2500 -70.9000 56° Northeast 157 181 3,000 -60 Descending KA90
12:37PM 43.2000 -70.8833 166° South 152 175 3,000 -120 Level KA90
12:38PM 43.1667 -70.8833 180° South 145 167 2,800 -300 Descending KA90
12:39PM 43.1333 -70.8833 180° South 127 146 2,500 -1,020 Descending KA90
12:40PM 43.1000 -70.8500 144° Southeast 134 154 800 -1,740 Descending KA90
12:42PM 43.0779 -70.8233 141° Southeast  Level Estimated